Olive Branch, Mississippi
Current Conditions -  °F | °C
As of 3:50 PM on Friday 31 Oct 2014 (Local Time) from KOLV Reporting Station
Scattered Clouds Scattered Clouds  
Wind Chill: 55°   Ceiling: Unl
Heat Index: 55°   Visibility: 10mi
Dew Point: 39°   Wind: 16mph
Humidity: 54%   Direction: 330°NNW
Pressure: 30.13"   Gusts: 29mph
Location:  34.96°N, 89.83°W
Report Text: KOLV 312050Z 33014G25KT 10SM SCT060 13/04 A3013
Loading
Personal Weather Stations






























Interactive Weather Map
Tropical Storm Tracking
New forecast layout! Learn more

10-Day Weather Forecast

Advertisements
Track Severe Weather on mobile